sensor_id;sensor_type;location;lat;lon;timestamp;P1;durP1;ratioP1;P2;durP2;ratioP2
84623;SDS011;74849;51.340;12.610;2023-12-29T00:02:07;2.15;;;1.20;;
84623;SDS011;74849;51.340;12.610;2023-12-29T00:04:34;2.10;;;1.13;;
84623;SDS011;74849;51.340;12.610;2023-12-29T00:07:01;2.08;;;1.02;;
84623;SDS011;74849;51.340;12.610;2023-12-29T00:09:28;2.58;;;0.88;;
84623;SDS011;74849;51.340;12.610;2023-12-29T00:11:55;1.70;;;0.70;;
84623;SDS011;74849;51.340;12.610;2023-12-29T00:14:22;1.92;;;0.80;;
84623;SDS011;74849;51.340;12.610;2023-12-29T00:16:49;1.77;;;1.00;;
84623;SDS011;74849;51.340;12.610;2023-12-29T00:19:16;4.30;;;1.42;;
84623;SDS011;74849;51.340;12.610;2023-12-29T00:21:43;2.17;;;0.90;;
84623;SDS011;74849;51.340;12.610;2023-12-29T00:24:10;3.22;;;1.15;;
84623;SDS011;74849;51.340;12.610;2023-12-29T00:26:36;1.77;;;1.10;;
84623;SDS011;74849;51.340;12.610;2023-12-29T00:29:04;2.47;;;1.10;;
84623;SDS011;74849;51.340;12.610;2023-12-29T00:31:32;1.92;;;1.10;;
84623;SDS011;74849;51.340;12.610;2023-12-29T00:33:59;1.15;;;0.80;;
84623;SDS011;74849;51.340;12.610;2023-12-29T00:36:26;1.58;;;0.95;;
84623;SDS011;74849;51.340;12.610;2023-12-29T00:38:53;1.52;;;1.05;;
84623;SDS011;74849;51.340;12.610;2023-12-29T00:41:20;1.55;;;1.15;;
84623;SDS011;74849;51.340;12.610;2023-12-29T00:43:46;1.45;;;1.10;;
84623;SDS011;74849;51.340;12.610;2023-12-29T00:46:14;1.20;;;0.70;;
84623;SDS011;74849;51.340;12.610;2023-12-29T00:48:41;1.90;;;0.98;;
84623;SDS011;74849;51.340;12.610;2023-12-29T00:51:08;1.80;;;1.05;;
84623;SDS011;74849;51.340;12.610;2023-12-29T00:53:36;3.63;;;0.93;;
84623;SDS011;74849;51.340;12.610;2023-12-29T00:56:09;1.50;;;0.98;;
84623;SDS011;74849;51.340;12.610;2023-12-29T00:58:37;2.30;;;1.02;;
84623;SDS011;74849;51.340;12.610;2023-12-29T01:01:04;1.73;;;0.82;;
84623;SDS011;74849;51.340;12.610;2023-12-29T01:03:34;1.88;;;1.02;;
84623;SDS011;74849;51.340;12.610;2023-12-29T01:06:01;2.17;;;0.90;;
84623;SDS011;74849;51.340;12.610;2023-12-29T01:08:28;1.95;;;1.15;;
84623;SDS011;74849;51.340;12.610;2023-12-29T01:10:56;1.17;;;0.73;;
84623;SDS011;74849;51.340;12.610;2023-12-29T01:13:23;1.65;;;1.15;;
84623;SDS011;74849;51.340;12.610;2023-12-29T01:15:50;2.17;;;1.05;;
84623;SDS011;74849;51.340;12.610;2023-12-29T01:18:17;1.85;;;1.02;;
84623;SDS011;74849;51.340;12.610;2023-12-29T01:20:44;1.63;;;1.20;;
84623;SDS011;74849;51.340;12.610;2023-12-29T01:23:11;1.73;;;0.80;;
84623;SDS011;74849;51.340;12.610;2023-12-29T01:25:38;1.15;;;0.70;;
84623;SDS011;74849;51.340;12.610;2023-12-29T01:28:05;1.65;;;0.60;;
84623;SDS011;74849;51.340;12.610;2023-12-29T01:30:32;2.38;;;1.00;;
84623;SDS011;74849;51.340;12.610;2023-12-29T01:32:59;1.20;;;0.55;;
84623;SDS011;74849;51.340;12.610;2023-12-29T01:35:26;2.38;;;0.70;;
84623;SDS011;74849;51.340;12.610;2023-12-29T01:37:52;1.80;;;0.52;;
84623;SDS011;74849;51.340;12.610;2023-12-29T01:40:22;1.17;;;0.60;;
84623;SDS011;74849;51.340;12.610;2023-12-29T01:42:49;1.48;;;0.70;;
84623;SDS011;74849;51.340;12.610;2023-12-29T01:45:20;1.08;;;0.77;;
84623;SDS011;74849;51.340;12.610;2023-12-29T01:47:49;3.05;;;0.90;;
84623;SDS011;74849;51.340;12.610;2023-12-29T01:50:17;1.27;;;0.70;;
84623;SDS011;74849;51.340;12.610;2023-12-29T01:52:45;1.05;;;0.50;;
84623;SDS011;74849;51.340;12.610;2023-12-29T01:55:14;0.82;;;0.70;;
84623;SDS011;74849;51.340;12.610;2023-12-29T01:57:43;1.15;;;0.80;;
84623;SDS011;74849;51.340;12.610;2023-12-29T02:00:11;1.88;;;0.60;;
84623;SDS011;74849;51.340;12.610;2023-12-29T02:02:38;1.50;;;0.70;;
84623;SDS011;74849;51.340;12.610;2023-12-29T02:05:06;1.67;;;0.80;;
84623;SDS011;74849;51.340;12.610;2023-12-29T02:07:33;0.98;;;0.57;;
84623;SDS011;74849;51.340;12.610;2023-12-29T02:10:00;1.63;;;0.90;;
84623;SDS011;74849;51.340;12.610;2023-12-29T02:12:27;0.95;;;0.57;;
84623;SDS011;74849;51.340;12.610;2023-12-29T02:14:54;1.75;;;0.60;;
84623;SDS011;74849;51.340;12.610;2023-12-29T02:17:22;1.15;;;0.60;;
84623;SDS011;74849;51.340;12.610;2023-12-29T02:19:52;0.80;;;0.40;;
84623;SDS011;74849;51.340;12.610;2023-12-29T02:22:19;0.63;;;0.35;;
84623;SDS011;74849;51.340;12.610;2023-12-29T02:24:47;2.00;;;0.80;;
84623;SDS011;74849;51.340;12.610;2023-12-29T02:27:39;1.05;;;0.50;;
84623;SDS011;74849;51.340;12.610;2023-12-29T02:32:29;1.17;;;0.50;;
84623;SDS011;74849;51.340;12.610;2023-12-29T02:34:56;0.60;;;0.30;;
84623;SDS011;74849;51.340;12.610;2023-12-29T02:37:26;1.70;;;0.50;;
84623;SDS011;74849;51.340;12.610;2023-12-29T02:39:55;1.77;;;0.50;;
84623;SDS011;74849;51.340;12.610;2023-12-29T02:42:24;1.70;;;0.50;;
84623;SDS011;74849;51.340;12.610;2023-12-29T02:44:51;2.45;;;0.70;;
84623;SDS011;74849;51.340;12.610;2023-12-29T02:47:18;0.77;;;0.47;;
84623;SDS011;74849;51.340;12.610;2023-12-29T02:49:47;0.40;;;0.35;;
84623;SDS011;74849;51.340;12.610;2023-12-29T02:52:15;0.80;;;0.50;;
84623;SDS011;74849;51.340;12.610;2023-12-29T02:54:42;2.85;;;0.60;;
84623;SDS011;74849;51.340;12.610;2023-12-29T02:57:10;2.15;;;0.50;;
84623;SDS011;74849;51.340;12.610;2023-12-29T02:59:37;0.80;;;0.50;;
84623;SDS011;74849;51.340;12.610;2023-12-29T03:02:06;1.25;;;0.40;;
84623;SDS011;74849;51.340;12.610;2023-12-29T03:04:32;0.50;;;0.38;;
84623;SDS011;74849;51.340;12.610;2023-12-29T03:06:59;0.80;;;0.50;;
84623;SDS011;74849;51.340;12.610;2023-12-29T03:09:27;0.90;;;0.45;;
84623;SDS011;74849;51.340;12.610;2023-12-29T03:11:53;1.30;;;0.40;;
84623;SDS011;74849;51.340;12.610;2023-12-29T03:14:20;0.90;;;0.40;;
84623;SDS011;74849;51.340;12.610;2023-12-29T03:16:47;0.47;;;0.35;;
84623;SDS011;74849;51.340;12.610;2023-12-29T03:19:14;1.02;;;0.50;;
84623;SDS011;74849;51.340;12.610;2023-12-29T03:21:41;0.85;;;0.50;;
84623;SDS011;74849;51.340;12.610;2023-12-29T03:24:09;0.93;;;0.50;;
84623;SDS011;74849;51.340;12.610;2023-12-29T03:26:36;0.88;;;0.40;;
84623;SDS011;74849;51.340;12.610;2023-12-29T03:29:04;1.70;;;0.60;;
84623;SDS011;74849;51.340;12.610;2023-12-29T03:31:30;0.57;;;0.30;;
84623;SDS011;74849;51.340;12.610;2023-12-29T03:33:57;1.15;;;0.50;;
84623;SDS011;74849;51.340;12.610;2023-12-29T03:36:24;1.27;;;0.40;;
84623;SDS011;74849;51.340;12.610;2023-12-29T03:38:51;0.85;;;0.43;;
84623;SDS011;74849;51.340;12.610;2023-12-29T03:41:18;0.52;;;0.30;;
84623;SDS011;74849;51.340;12.610;2023-12-29T03:43:47;1.20;;;0.52;;
84623;SDS011;74849;51.340;12.610;2023-12-29T03:46:19;1.02;;;0.50;;
84623;SDS011;74849;51.340;12.610;2023-12-29T03:48:46;0.35;;;0.30;;
84623;SDS011;74849;51.340;12.610;2023-12-29T03:51:14;0.52;;;0.40;;
84623;SDS011;74849;51.340;12.610;2023-12-29T03:53:43;1.50;;;0.40;;
84623;SDS011;74849;51.340;12.610;2023-12-29T03:56:15;0.77;;;0.52;;
84623;SDS011;74849;51.340;12.610;2023-12-29T03:58:45;4.57;;;0.90;;
84623;SDS011;74849;51.340;12.610;2023-12-29T04:01:14;0.93;;;0.40;;
84623;SDS011;74849;51.340;12.610;2023-12-29T04:03:42;0.75;;;0.40;;
84623;SDS011;74849;51.340;12.610;2023-12-29T04:06:09;0.70;;;0.47;;
84623;SDS011;74849;51.340;12.610;2023-12-29T04:08:37;1.38;;;0.45;;
84623;SDS011;74849;51.340;12.610;2023-12-29T04:11:04;1.08;;;0.40;;
84623;SDS011;74849;51.340;12.610;2023-12-29T04:13:32;1.73;;;0.45;;
84623;SDS011;74849;51.340;12.610;2023-12-29T04:15:59;0.65;;;0.35;;
84623;SDS011;74849;51.340;12.610;2023-12-29T04:18:26;1.00;;;0.45;;
84623;SDS011;74849;51.340;12.610;2023-12-29T04:20:54;0.77;;;0.70;;
84623;SDS011;74849;51.340;12.610;2023-12-29T04:23:21;0.43;;;0.40;;
84623;SDS011;74849;51.340;12.610;2023-12-29T04:25:48;0.65;;;0.40;;
84623;SDS011;74849;51.340;12.610;2023-12-29T04:28:15;0.88;;;0.38;;
84623;SDS011;74849;51.340;12.610;2023-12-29T04:30:42;0.95;;;0.60;;
84623;SDS011;74849;51.340;12.610;2023-12-29T04:33:09;1.02;;;0.60;;
84623;SDS011;74849;51.340;12.610;2023-12-29T04:35:36;1.35;;;0.50;;
84623;SDS011;74849;51.340;12.610;2023-12-29T04:38:03;2.38;;;0.52;;
84623;SDS011;74849;51.340;12.610;2023-12-29T04:40:30;1.20;;;0.60;;
84623;SDS011;74849;51.340;12.610;2023-12-29T04:42:56;0.85;;;0.57;;
84623;SDS011;74849;51.340;12.610;2023-12-29T04:45:23;0.88;;;0.40;;
84623;SDS011;74849;51.340;12.610;2023-12-29T04:47:50;1.30;;;0.60;;
84623;SDS011;74849;51.340;12.610;2023-12-29T04:50:17;2.85;;;0.80;;
84623;SDS011;74849;51.340;12.610;2023-12-29T04:52:44;1.10;;;0.70;;
84623;SDS011;74849;51.340;12.610;2023-12-29T04:55:11;1.65;;;0.70;;
84623;SDS011;74849;51.340;12.610;2023-12-29T04:57:38;1.75;;;0.65;;
84623;SDS011;74849;51.340;12.610;2023-12-29T05:00:06;0.55;;;0.40;;
84623;SDS011;74849;51.340;12.610;2023-12-29T05:02:33;1.92;;;0.68;;
84623;SDS011;74849;51.340;12.610;2023-12-29T05:05:00;1.27;;;0.73;;
84623;SDS011;74849;51.340;12.610;2023-12-29T05:07:27;0.90;;;0.43;;
84623;SDS011;74849;51.340;12.610;2023-12-29T05:09:54;1.20;;;0.65;;
84623;SDS011;74849;51.340;12.610;2023-12-29T05:12:20;1.17;;;0.70;;
84623;SDS011;74849;51.340;12.610;2023-12-29T05:14:47;1.05;;;0.70;;
84623;SDS011;74849;51.340;12.610;2023-12-29T05:17:14;1.50;;;0.63;;
84623;SDS011;74849;51.340;12.610;2023-12-29T05:19:41;3.47;;;0.55;;
84623;SDS011;74849;51.340;12.610;2023-12-29T05:22:08;0.95;;;0.68;;
84623;SDS011;74849;51.340;12.610;2023-12-29T05:24:35;1.67;;;0.85;;
84623;SDS011;74849;51.340;12.610;2023-12-29T05:27:02;0.85;;;0.60;;
84623;SDS011;74849;51.340;12.610;2023-12-29T05:29:29;1.45;;;0.75;;
84623;SDS011;74849;51.340;12.610;2023-12-29T05:31:56;1.02;;;0.68;;
84623;SDS011;74849;51.340;12.610;2023-12-29T05:34:23;4.07;;;1.00;;
84623;SDS011;74849;51.340;12.610;2023-12-29T05:36:49;1.20;;;0.65;;
84623;SDS011;74849;51.340;12.610;2023-12-29T05:39:16;0.90;;;0.60;;
84623;SDS011;74849;51.340;12.610;2023-12-29T05:41:43;2.55;;;1.13;;
84623;SDS011;74849;51.340;12.610;2023-12-29T05:44:10;2.08;;;0.90;;
84623;SDS011;74849;51.340;12.610;2023-12-29T05:46:37;1.77;;;1.05;;
84623;SDS011;74849;51.340;12.610;2023-12-29T05:49:04;0.93;;;0.70;;
84623;SDS011;74849;51.340;12.610;2023-12-29T05:51:31;0.93;;;0.50;;
84623;SDS011;74849;51.340;12.610;2023-12-29T05:53:58;1.40;;;0.70;;
84623;SDS011;74849;51.340;12.610;2023-12-29T05:56:25;3.35;;;0.70;;
84623;SDS011;74849;51.340;12.610;2023-12-29T05:58:52;2.28;;;0.60;;
84623;SDS011;74849;51.340;12.610;2023-12-29T06:01:19;0.88;;;0.65;;
84623;SDS011;74849;51.340;12.610;2023-12-29T06:03:46;2.92;;;0.93;;
84623;SDS011;74849;51.340;12.610;2023-12-29T06:06:13;1.27;;;0.70;;
84623;SDS011;74849;51.340;12.610;2023-12-29T06:08:40;1.45;;;0.85;;
84623;SDS011;74849;51.340;12.610;2023-12-29T06:11:06;1.00;;;0.80;;
84623;SDS011;74849;51.340;12.610;2023-12-29T06:13:34;1.73;;;0.90;;
84623;SDS011;74849;51.340;12.610;2023-12-29T06:16:01;1.95;;;0.93;;
84623;SDS011;74849;51.340;12.610;2023-12-29T06:18:28;1.35;;;0.80;;
84623;SDS011;74849;51.340;12.610;2023-12-29T06:20:55;1.85;;;0.90;;
84623;SDS011;74849;51.340;12.610;2023-12-29T06:23:21;1.20;;;0.63;;
84623;SDS011;74849;51.340;12.610;2023-12-29T06:25:48;1.75;;;0.82;;
84623;SDS011;74849;51.340;12.610;2023-12-29T06:28:16;1.70;;;0.88;;
84623;SDS011;74849;51.340;12.610;2023-12-29T06:30:43;1.40;;;0.73;;
84623;SDS011;74849;51.340;12.610;2023-12-29T06:33:10;1.35;;;0.93;;
84623;SDS011;74849;51.340;12.610;2023-12-29T06:35:37;1.58;;;0.70;;
84623;SDS011;74849;51.340;12.610;2023-12-29T06:38:04;1.58;;;0.98;;
84623;SDS011;74849;51.340;12.610;2023-12-29T06:40:31;3.17;;;0.80;;
84623;SDS011;74849;51.340;12.610;2023-12-29T06:42:58;2.10;;;1.08;;
84623;SDS011;74849;51.340;12.610;2023-12-29T06:45:25;1.48;;;1.38;;
84623;SDS011;74849;51.340;12.610;2023-12-29T06:47:52;1.60;;;0.85;;
84623;SDS011;74849;51.340;12.610;2023-12-29T06:50:19;1.23;;;0.80;;
84623;SDS011;74849;51.340;12.610;2023-12-29T06:52:46;2.35;;;0.65;;
84623;SDS011;74849;51.340;12.610;2023-12-29T06:55:13;1.40;;;0.93;;
84623;SDS011;74849;51.340;12.610;2023-12-29T06:57:40;1.17;;;0.68;;
84623;SDS011;74849;51.340;12.610;2023-12-29T07:00:07;1.40;;;0.73;;
84623;SDS011;74849;51.340;12.610;2023-12-29T07:02:37;1.33;;;0.73;;
84623;SDS011;74849;51.340;12.610;2023-12-29T07:05:05;3.38;;;0.77;;
84623;SDS011;74849;51.340;12.610;2023-12-29T07:07:32;1.15;;;0.70;;
84623;SDS011;74849;51.340;12.610;2023-12-29T07:10:00;1.27;;;0.70;;
84623;SDS011;74849;51.340;12.610;2023-12-29T07:12:27;1.08;;;0.65;;
84623;SDS011;74849;51.340;12.610;2023-12-29T07:14:54;1.42;;;0.75;;
84623;SDS011;74849;51.340;12.610;2023-12-29T07:17:21;5.68;;;2.10;;
84623;SDS011;74849;51.340;12.610;2023-12-29T07:19:48;5.03;;;1.40;;
84623;SDS011;74849;51.340;12.610;2023-12-29T07:22:15;5.03;;;1.98;;
84623;SDS011;74849;51.340;12.610;2023-12-29T07:24:42;2.15;;;1.00;;
84623;SDS011;74849;51.340;12.610;2023-12-29T07:27:09;1.48;;;0.70;;
84623;SDS011;74849;51.340;12.610;2023-12-29T07:29:36;4.55;;;1.30;;
84623;SDS011;74849;51.340;12.610;2023-12-29T07:32:03;1.60;;;0.70;;
84623;SDS011;74849;51.340;12.610;2023-12-29T07:34:31;2.28;;;1.05;;
84623;SDS011;74849;51.340;12.610;2023-12-29T07:36:58;1.10;;;0.70;;
84623;SDS011;74849;51.340;12.610;2023-12-29T07:39:25;2.63;;;1.67;;
84623;SDS011;74849;51.340;12.610;2023-12-29T07:41:52;3.55;;;1.45;;
84623;SDS011;74849;51.340;12.610;2023-12-29T07:44:19;3.13;;;1.60;;
84623;SDS011;74849;51.340;12.610;2023-12-29T07:46:46;2.22;;;1.23;;
84623;SDS011;74849;51.340;12.610;2023-12-29T07:49:13;2.83;;;1.10;;
84623;SDS011;74849;51.340;12.610;2023-12-29T07:51:40;2.85;;;1.52;;
84623;SDS011;74849;51.340;12.610;2023-12-29T07:54:08;6.32;;;2.05;;
84623;SDS011;74849;51.340;12.610;2023-12-29T07:56:35;1.80;;;1.20;;
84623;SDS011;74849;51.340;12.610;2023-12-29T07:59:03;4.22;;;1.83;;
84623;SDS011;74849;51.340;12.610;2023-12-29T08:01:30;2.78;;;1.27;;
84623;SDS011;74849;51.340;12.610;2023-12-29T08:03:57;2.08;;;1.00;;
84623;SDS011;74849;51.340;12.610;2023-12-29T08:06:24;1.92;;;0.85;;
84623;SDS011;74849;51.340;12.610;2023-12-29T08:08:51;5.88;;;1.50;;
84623;SDS011;74849;51.340;12.610;2023-12-29T08:11:19;4.28;;;1.45;;
84623;SDS011;74849;51.340;12.610;2023-12-29T08:13:47;1.20;;;1.10;;
84623;SDS011;74849;51.340;12.610;2023-12-29T08:16:15;2.13;;;1.40;;
84623;SDS011;74849;51.340;12.610;2023-12-29T08:18:46;2.65;;;1.67;;
84623;SDS011;74849;51.340;12.610;2023-12-29T08:21:18;14.32;;;6.35;;
84623;SDS011;74849;51.340;12.610;2023-12-29T08:23:46;37.83;;;15.15;;
84623;SDS011;74849;51.340;12.610;2023-12-29T08:26:13;14.07;;;5.70;;
84623;SDS011;74849;51.340;12.610;2023-12-29T08:28:40;7.50;;;2.42;;
84623;SDS011;74849;51.340;12.610;2023-12-29T08:31:07;27.38;;;10.93;;
84623;SDS011;74849;51.340;12.610;2023-12-29T08:33:34;10.60;;;5.18;;
84623;SDS011;74849;51.340;12.610;2023-12-29T08:36:02;5.80;;;3.40;;
84623;SDS011;74849;51.340;12.610;2023-12-29T08:38:29;4.95;;;4.20;;
84623;SDS011;74849;51.340;12.610;2023-12-29T08:40:59;3.70;;;3.15;;
84623;SDS011;74849;51.340;12.610;2023-12-29T08:43:26;2.65;;;1.10;;
84623;SDS011;74849;51.340;12.610;2023-12-29T08:45:53;3.00;;;1.00;;
84623;SDS011;74849;51.340;12.610;2023-12-29T08:48:20;2.13;;;0.65;;
84623;SDS011;74849;51.340;12.610;2023-12-29T08:50:47;1.52;;;0.90;;
84623;SDS011;74849;51.340;12.610;2023-12-29T08:53:14;3.28;;;1.00;;
84623;SDS011;74849;51.340;12.610;2023-12-29T08:55:42;4.13;;;1.10;;
84623;SDS011;74849;51.340;12.610;2023-12-29T08:58:09;3.42;;;1.05;;
84623;SDS011;74849;51.340;12.610;2023-12-29T09:00:36;3.45;;;1.42;;
84623;SDS011;74849;51.340;12.610;2023-12-29T09:03:03;4.78;;;0.88;;
84623;SDS011;74849;51.340;12.610;2023-12-29T09:05:31;3.83;;;1.45;;
84623;SDS011;74849;51.340;12.610;2023-12-29T09:07:58;2.28;;;1.02;;
84623;SDS011;74849;51.340;12.610;2023-12-29T09:10:25;0.77;;;0.70;;
84623;SDS011;74849;51.340;12.610;2023-12-29T09:12:51;2.25;;;0.77;;
84623;SDS011;74849;51.340;12.610;2023-12-29T09:15:18;2.42;;;0.93;;
84623;SDS011;74849;51.340;12.610;2023-12-29T09:17:45;3.40;;;0.77;;
84623;SDS011;74849;51.340;12.610;2023-12-29T09:20:12;2.28;;;0.88;;
84623;SDS011;74849;51.340;12.610;2023-12-29T09:22:40;1.77;;;0.70;;
84623;SDS011;74849;51.340;12.610;2023-12-29T09:25:07;1.33;;;0.60;;
84623;SDS011;74849;51.340;12.610;2023-12-29T09:27:34;2.13;;;0.70;;
84623;SDS011;74849;51.340;12.610;2023-12-29T09:30:01;1.23;;;0.77;;
84623;SDS011;74849;51.340;12.610;2023-12-29T09:32:29;1.50;;;0.90;;
84623;SDS011;74849;51.340;12.610;2023-12-29T09:34:56;1.70;;;0.70;;
84623;SDS011;74849;51.340;12.610;2023-12-29T09:37:23;2.60;;;0.70;;
84623;SDS011;74849;51.340;12.610;2023-12-29T09:39:50;1.30;;;0.68;;
84623;SDS011;74849;51.340;12.610;2023-12-29T09:42:20;3.08;;;1.13;;
84623;SDS011;74849;51.340;12.610;2023-12-29T09:44:51;1.95;;;0.63;;
84623;SDS011;74849;51.340;12.610;2023-12-29T09:47:25;3.05;;;1.20;;
84623;SDS011;74849;51.340;12.610;2023-12-29T09:49:52;5.35;;;1.50;;
84623;SDS011;74849;51.340;12.610;2023-12-29T09:52:20;3.15;;;1.13;;
84623;SDS011;74849;51.340;12.610;2023-12-29T09:54:51;1.33;;;0.80;;
84623;SDS011;74849;51.340;12.610;2023-12-29T09:57:18;5.30;;;1.73;;
84623;SDS011;74849;51.340;12.610;2023-12-29T09:59:45;3.05;;;1.27;;
84623;SDS011;74849;51.340;12.610;2023-12-29T10:02:17;3.35;;;1.85;;
84623;SDS011;74849;51.340;12.610;2023-12-29T10:04:44;4.03;;;1.45;;
84623;SDS011;74849;51.340;12.610;2023-12-29T10:07:13;4.22;;;1.60;;
84623;SDS011;74849;51.340;12.610;2023-12-29T10:09:47;3.28;;;1.20;;
84623;SDS011;74849;51.340;12.610;2023-12-29T10:12:18;4.90;;;1.88;;
84623;SDS011;74849;51.340;12.610;2023-12-29T10:14:48;6.85;;;2.58;;
84623;SDS011;74849;51.340;12.610;2023-12-29T10:18:07;2.10;;;1.42;;
84623;SDS011;74849;51.340;12.610;2023-12-29T10:20:53;4.15;;;1.60;;
84623;SDS011;74849;51.340;12.610;2023-12-29T10:23:40;3.75;;;1.40;;
84623;SDS011;74849;51.340;12.610;2023-12-29T10:26:16;3.25;;;1.50;;
84623;SDS011;74849;51.340;12.610;2023-12-29T10:28:43;4.97;;;1.85;;
84623;SDS011;74849;51.340;12.610;2023-12-29T10:31:13;3.30;;;1.15;;
84623;SDS011;74849;51.340;12.610;2023-12-29T10:33:44;3.85;;;1.50;;
84623;SDS011;74849;51.340;12.610;2023-12-29T10:36:16;8.13;;;3.70;;
84623;SDS011;74849;51.340;12.610;2023-12-29T10:38:43;3.63;;;1.58;;
84623;SDS011;74849;51.340;12.610;2023-12-29T10:41:14;1.85;;;1.27;;
84623;SDS011;74849;51.340;12.610;2023-12-29T10:43:42;4.60;;;2.00;;
84623;SDS011;74849;51.340;12.610;2023-12-29T10:46:10;4.95;;;1.67;;
84623;SDS011;74849;51.340;12.610;2023-12-29T10:48:38;6.85;;;2.22;;
84623;SDS011;74849;51.340;12.610;2023-12-29T10:51:05;3.28;;;1.10;;
84623;SDS011;74849;51.340;12.610;2023-12-29T10:53:36;7.45;;;2.20;;
84623;SDS011;74849;51.340;12.610;2023-12-29T10:56:03;5.22;;;1.58;;
84623;SDS011;74849;51.340;12.610;2023-12-29T10:58:31;5.75;;;1.85;;
84623;SDS011;74849;51.340;12.610;2023-12-29T11:00:58;3.17;;;1.40;;
84623;SDS011;74849;51.340;12.610;2023-12-29T11:03:25;3.80;;;1.85;;
84623;SDS011;74849;51.340;12.610;2023-12-29T11:06:02;5.47;;;2.67;;
84623;SDS011;74849;51.340;12.610;2023-12-29T11:08:29;5.78;;;2.53;;
84623;SDS011;74849;51.340;12.610;2023-12-29T11:10:55;6.25;;;4.18;;
84623;SDS011;74849;51.340;12.610;2023-12-29T11:13:22;7.15;;;4.05;;
84623;SDS011;74849;51.340;12.610;2023-12-29T11:15:50;18.80;;;10.25;;
84623;SDS011;74849;51.340;12.610;2023-12-29T11:18:19;29.25;;;14.55;;
84623;SDS011;74849;51.340;12.610;2023-12-29T11:20:46;9.60;;;6.80;;
84623;SDS011;74849;51.340;12.610;2023-12-29T11:23:13;2.55;;;1.83;;
84623;SDS011;74849;51.340;12.610;2023-12-29T11:25:39;2.28;;;1.40;;
84623;SDS011;74849;51.340;12.610;2023-12-29T11:28:09;4.47;;;1.60;;
84623;SDS011;74849;51.340;12.610;2023-12-29T11:30:39;2.47;;;1.00;;
84623;SDS011;74849;51.340;12.610;2023-12-29T11:33:41;3.70;;;1.38;;
84623;SDS011;74849;51.340;12.610;2023-12-29T11:41:43;3.42;;;1.30;;
84623;SDS011;74849;51.340;12.610;2023-12-29T11:44:24;3.65;;;1.45;;
84623;SDS011;74849;51.340;12.610;2023-12-29T11:46:56;3.63;;;2.28;;
84623;SDS011;74849;51.340;12.610;2023-12-29T11:49:23;3.03;;;1.77;;
84623;SDS011;74849;51.340;12.610;2023-12-29T11:51:50;3.33;;;1.65;;
84623;SDS011;74849;51.340;12.610;2023-12-29T11:54:24;2.22;;;1.48;;
84623;SDS011;74849;51.340;12.610;2023-12-29T11:56:55;3.78;;;1.80;;
84623;SDS011;74849;51.340;12.610;2023-12-29T11:59:22;3.05;;;1.67;;
84623;SDS011;74849;51.340;12.610;2023-12-29T12:01:51;2.10;;;1.65;;
84623;SDS011;74849;51.340;12.610;2023-12-29T12:04:34;3.65;;;1.27;;
84623;SDS011;74849;51.340;12.610;2023-12-29T12:07:09;1.98;;;1.20;;
84623;SDS011;74849;51.340;12.610;2023-12-29T12:09:49;1.58;;;1.02;;
84623;SDS011;74849;51.340;12.610;2023-12-29T12:15:04;1.27;;;1.00;;
84623;SDS011;74849;51.340;12.610;2023-12-29T12:17:54;1.25;;;0.95;;
84623;SDS011;74849;51.340;12.610;2023-12-29T12:20:22;2.95;;;0.80;;
84623;SDS011;74849;51.340;12.610;2023-12-29T12:22:59;1.15;;;0.90;;
84623;SDS011;74849;51.340;12.610;2023-12-29T12:25:45;1.27;;;0.73;;
84623;SDS011;74849;51.340;12.610;2023-12-29T12:28:15;1.27;;;0.88;;
84623;SDS011;74849;51.340;12.610;2023-12-29T12:30:42;1.45;;;0.85;;
84623;SDS011;74849;51.340;12.610;2023-12-29T12:33:09;4.38;;;1.20;;
84623;SDS011;74849;51.340;12.610;2023-12-29T12:35:39;1.70;;;1.02;;
84623;SDS011;74849;51.340;12.610;2023-12-29T12:40:40;2.90;;;0.80;;
84623;SDS011;74849;51.340;12.610;2023-12-29T12:43:07;2.65;;;0.98;;
84623;SDS011;74849;51.340;12.610;2023-12-29T12:45:41;1.88;;;1.00;;
84623;SDS011;74849;51.340;12.610;2023-12-29T12:48:23;1.73;;;1.17;;
84623;SDS011;74849;51.340;12.610;2023-12-29T12:50:59;4.25;;;1.77;;
84623;SDS011;74849;51.340;12.610;2023-12-29T12:53:26;1.73;;;1.08;;
84623;SDS011;74849;51.340;12.610;2023-12-29T12:55:54;1.92;;;1.15;;
84623;SDS011;74849;51.340;12.610;2023-12-29T12:58:21;1.60;;;0.70;;
84623;SDS011;74849;51.340;12.610;2023-12-29T13:00:48;3.72;;;1.75;;
84623;SDS011;74849;51.340;12.610;2023-12-29T13:03:16;3.03;;;1.67;;
84623;SDS011;74849;51.340;12.610;2023-12-29T13:05:42;2.95;;;1.17;;
84623;SDS011;74849;51.340;12.610;2023-12-29T13:08:09;1.30;;;0.70;;
84623;SDS011;74849;51.340;12.610;2023-12-29T13:10:41;1.63;;;0.70;;
84623;SDS011;74849;51.340;12.610;2023-12-29T13:13:12;4.30;;;1.05;;
84623;SDS011;74849;51.340;12.610;2023-12-29T13:15:49;1.30;;;0.65;;
84623;SDS011;74849;51.340;12.610;2023-12-29T13:18:17;1.40;;;0.85;;
84623;SDS011;74849;51.340;12.610;2023-12-29T13:20:53;2.35;;;0.80;;
84623;SDS011;74849;51.340;12.610;2023-12-29T13:23:20;2.35;;;1.00;;
84623;SDS011;74849;51.340;12.610;2023-12-29T13:26:02;1.92;;;0.70;;
84623;SDS011;74849;51.340;12.610;2023-12-29T13:28:33;2.13;;;0.82;;
84623;SDS011;74849;51.340;12.610;2023-12-29T13:31:01;2.97;;;0.90;;
84623;SDS011;74849;51.340;12.610;2023-12-29T13:33:43;2.20;;;0.90;;
84623;SDS011;74849;51.340;12.610;2023-12-29T13:36:16;1.20;;;0.50;;
84623;SDS011;74849;51.340;12.610;2023-12-29T13:38:56;1.83;;;0.80;;
84623;SDS011;74849;51.340;12.610;2023-12-29T13:41:25;1.63;;;0.82;;
84623;SDS011;74849;51.340;12.610;2023-12-29T13:43:54;1.48;;;0.68;;
84623;SDS011;74849;51.340;12.610;2023-12-29T13:46:21;3.25;;;0.70;;
84623;SDS011;74849;51.340;12.610;2023-12-29T13:48:48;2.30;;;0.60;;
84623;SDS011;74849;51.340;12.610;2023-12-29T13:51:16;2.22;;;0.70;;
84623;SDS011;74849;51.340;12.610;2023-12-29T13:53:47;2.65;;;0.70;;
84623;SDS011;74849;51.340;12.610;2023-12-29T13:56:14;3.33;;;1.25;;
84623;SDS011;74849;51.340;12.610;2023-12-29T13:58:41;1.35;;;0.70;;
84623;SDS011;74849;51.340;12.610;2023-12-29T14:01:08;2.33;;;0.80;;
84623;SDS011;74849;51.340;12.610;2023-12-29T14:03:54;3.10;;;0.70;;
84623;SDS011;74849;51.340;12.610;2023-12-29T14:06:29;1.73;;;0.73;;
84623;SDS011;74849;51.340;12.610;2023-12-29T14:09:04;2.90;;;0.70;;
84623;SDS011;74849;51.340;12.610;2023-12-29T14:11:32;3.25;;;0.90;;
84623;SDS011;74849;51.340;12.610;2023-12-29T14:13:59;1.52;;;0.90;;
84623;SDS011;74849;51.340;12.610;2023-12-29T14:16:25;1.23;;;0.80;;
84623;SDS011;74849;51.340;12.610;2023-12-29T14:18:53;3.17;;;0.80;;
84623;SDS011;74849;51.340;12.610;2023-12-29T14:21:27;1.33;;;0.63;;
84623;SDS011;74849;51.340;12.610;2023-12-29T14:26:42;1.42;;;0.60;;
84623;SDS011;74849;51.340;12.610;2023-12-29T14:29:18;2.00;;;0.85;;
84623;SDS011;74849;51.340;12.610;2023-12-29T14:31:46;1.65;;;0.60;;
84623;SDS011;74849;51.340;12.610;2023-12-29T14:34:13;2.33;;;0.70;;
84623;SDS011;74849;51.340;12.610;2023-12-29T14:36:41;1.40;;;0.60;;
84623;SDS011;74849;51.340;12.610;2023-12-29T14:39:08;2.00;;;0.85;;
84623;SDS011;74849;51.340;12.610;2023-12-29T14:41:39;3.80;;;1.92;;
84623;SDS011;74849;51.340;12.610;2023-12-29T14:44:06;1.10;;;0.52;;
84623;SDS011;74849;51.340;12.610;2023-12-29T14:46:33;2.05;;;0.60;;
84623;SDS011;74849;51.340;12.610;2023-12-29T14:49:02;1.38;;;0.75;;
84623;SDS011;74849;51.340;12.610;2023-12-29T14:51:29;1.48;;;0.80;;
84623;SDS011;74849;51.340;12.610;2023-12-29T14:53:56;0.93;;;0.55;;
84623;SDS011;74849;51.340;12.610;2023-12-29T14:56:23;1.38;;;0.80;;
84623;SDS011;74849;51.340;12.610;2023-12-29T14:58:50;1.63;;;0.90;;